sensor_id;sensor_type;location;lat;lon;timestamp;temperature;humidity
3846;DHT22;1938;50.812;7.738;2023-02-11T00:01:32;2.10;99.90
3846;DHT22;1938;50.812;7.738;2023-02-11T00:03:59;2.20;99.90
3846;DHT22;1938;50.812;7.738;2023-02-11T00:06:27;2.20;99.90
3846;DHT22;1938;50.812;7.738;2023-02-11T00:08:54;2.10;56.70
3846;DHT22;1938;50.812;7.738;2023-02-11T00:11:21;2.00;57.40
3846;DHT22;1938;50.812;7.738;2023-02-11T00:13:47;2.10;99.90
3846;DHT22;1938;50.812;7.738;2023-02-11T00:16:18;2.10;98.60
3846;DHT22;1938;50.812;7.738;2023-02-11T00:18:44;2.10;85.20
3846;DHT22;1938;50.812;7.738;2023-02-11T00:21:18;2.10;99.90
3846;DHT22;1938;50.812;7.738;2023-02-11T00:23:46;2.00;99.90
3846;DHT22;1938;50.812;7.738;2023-02-11T00:26:20;2.10;99.90
3846;DHT22;1938;50.812;7.738;2023-02-11T00:28:47;2.10;85.30
3846;DHT22;1938;50.812;7.738;2023-02-11T00:31:14;2.00;99.90
3846;DHT22;1938;50.812;7.738;2023-02-11T00:33:40;1.90;99.90
3846;DHT22;1938;50.812;7.738;2023-02-11T00:36:19;1.80;99.90
3846;DHT22;1938;50.812;7.738;2023-02-11T00:38:46;1.70;99.90
3846;DHT22;1938;50.812;7.738;2023-02-11T00:41:12;1.70;99.90
3846;DHT22;1938;50.812;7.738;2023-02-11T00:43:39;1.70;99.90
3846;DHT22;1938;50.812;7.738;2023-02-11T00:46:05;1.70;99.90
3846;DHT22;1938;50.812;7.738;2023-02-11T00:48:31;1.70;99.90
3846;DHT22;1938;50.812;7.738;2023-02-11T00:50:57;1.70;99.90
3846;DHT22;1938;50.812;7.738;2023-02-11T00:53:22;1.70;99.90
3846;DHT22;1938;50.812;7.738;2023-02-11T00:55:50;1.70;99.90
3846;DHT22;1938;50.812;7.738;2023-02-11T00:58:15;1.70;99.90
3846;DHT22;1938;50.812;7.738;2023-02-11T01:00:41;1.80;99.90
3846;DHT22;1938;50.812;7.738;2023-02-11T01:03:06;1.90;99.90
3846;DHT22;1938;50.812;7.738;2023-02-11T01:05:32;1.80;99.90
3846;DHT22;1938;50.812;7.738;2023-02-11T01:07:58;1.90;99.90
3846;DHT22;1938;50.812;7.738;2023-02-11T01:10:24;1.90;99.90
3846;DHT22;1938;50.812;7.738;2023-02-11T01:12:50;1.90;99.90
3846;DHT22;1938;50.812;7.738;2023-02-11T01:15:17;1.90;99.90
3846;DHT22;1938;50.812;7.738;2023-02-11T01:17:44;1.90;99.90
3846;DHT22;1938;50.812;7.738;2023-02-11T01:20:15;1.90;99.90
3846;DHT22;1938;50.812;7.738;2023-02-11T01:22:41;1.90;99.90
3846;DHT22;1938;50.812;7.738;2023-02-11T01:25:07;2.00;99.90
3846;DHT22;1938;50.812;7.738;2023-02-11T01:27:34;1.90;99.90
3846;DHT22;1938;50.812;7.738;2023-02-11T01:30:01;1.90;99.90
3846;DHT22;1938;50.812;7.738;2023-02-11T01:32:26;1.90;99.90
3846;DHT22;1938;50.812;7.738;2023-02-11T01:34:52;2.00;99.90
3846;DHT22;1938;50.812;7.738;2023-02-11T01:37:18;2.00;99.90
3846;DHT22;1938;50.812;7.738;2023-02-11T01:39:43;2.00;99.90
3846;DHT22;1938;50.812;7.738;2023-02-11T01:42:15;2.00;99.90
3846;DHT22;1938;50.812;7.738;2023-02-11T01:44:41;2.10;99.90
3846;DHT22;1938;50.812;7.738;2023-02-11T01:47:06;2.10;99.90
3846;DHT22;1938;50.812;7.738;2023-02-11T01:49:38;1.90;99.90
3846;DHT22;1938;50.812;7.738;2023-02-11T01:54:52;1.90;99.90
3846;DHT22;1938;50.812;7.738;2023-02-11T01:57:39;1.90;99.90
3846;DHT22;1938;50.812;7.738;2023-02-11T02:05:31;2.00;99.90
3846;DHT22;1938;50.812;7.738;2023-02-11T02:07:59;2.00;99.90
3846;DHT22;1938;50.812;7.738;2023-02-11T02:10:28;2.10;99.90
3846;DHT22;1938;50.812;7.738;2023-02-11T02:12:54;2.10;99.90
3846;DHT22;1938;50.812;7.738;2023-02-11T02:15:32;2.10;99.90
3846;DHT22;1938;50.812;7.738;2023-02-11T02:18:02;2.00;99.90
3846;DHT22;1938;50.812;7.738;2023-02-11T02:21:03;2.10;99.90
3846;DHT22;1938;50.812;7.738;2023-02-11T02:32:22;2.00;99.90
3846;DHT22;1938;50.812;7.738;2023-02-11T02:37:46;1.90;99.90
3846;DHT22;1938;50.812;7.738;2023-02-11T02:40:24;2.10;99.90
3846;DHT22;1938;50.812;7.738;2023-02-11T02:42:52;2.20;99.90
3846;DHT22;1938;50.812;7.738;2023-02-11T02:45:18;2.00;99.90
3846;DHT22;1938;50.812;7.738;2023-02-11T02:47:44;2.00;99.90
3846;DHT22;1938;50.812;7.738;2023-02-11T02:50:11;1.90;99.90
3846;DHT22;1938;50.812;7.738;2023-02-11T02:59:00;1.80;99.90
3846;DHT22;1938;50.812;7.738;2023-02-11T03:01:58;1.80;99.90
3846;DHT22;1938;50.812;7.738;2023-02-11T03:05:04;1.80;99.90
3846;DHT22;1938;50.812;7.738;2023-02-11T03:07:54;1.80;99.90
3846;DHT22;1938;50.812;7.738;2023-02-11T03:10:26;1.70;99.90
3846;DHT22;1938;50.812;7.738;2023-02-11T03:12:54;1.70;99.90
3846;DHT22;1938;50.812;7.738;2023-02-11T03:15:22;1.70;99.90
3846;DHT22;1938;50.812;7.738;2023-02-11T03:17:51;1.70;99.90
3846;DHT22;1938;50.812;7.738;2023-02-11T03:20:19;1.60;99.90
3846;DHT22;1938;50.812;7.738;2023-02-11T03:22:51;1.70;99.90
3846;DHT22;1938;50.812;7.738;2023-02-11T03:25:18;1.70;99.90
3846;DHT22;1938;50.812;7.738;2023-02-11T03:27:51;1.80;99.90
3846;DHT22;1938;50.812;7.738;2023-02-11T03:30:29;1.90;99.90
3846;DHT22;1938;50.812;7.738;2023-02-11T03:33:07;1.90;99.90
3846;DHT22;1938;50.812;7.738;2023-02-11T03:35:59;1.90;99.90
3846;DHT22;1938;50.812;7.738;2023-02-11T03:38:33;1.90;99.90
3846;DHT22;1938;50.812;7.738;2023-02-11T03:41:03;1.80;99.90
3846;DHT22;1938;50.812;7.738;2023-02-11T03:43:37;1.90;99.90
3846;DHT22;1938;50.812;7.738;2023-02-11T03:46:05;1.80;99.90
3846;DHT22;1938;50.812;7.738;2023-02-11T03:48:44;1.80;99.90
3846;DHT22;1938;50.812;7.738;2023-02-11T03:51:12;1.80;99.90
3846;DHT22;1938;50.812;7.738;2023-02-11T03:53:40;2.00;99.90
3846;DHT22;1938;50.812;7.738;2023-02-11T03:56:12;2.00;99.90
3846;DHT22;1938;50.812;7.738;2023-02-11T03:58:39;1.90;99.90
3846;DHT22;1938;50.812;7.738;2023-02-11T04:01:05;1.80;99.90
3846;DHT22;1938;50.812;7.738;2023-02-11T04:03:35;1.90;99.90
3846;DHT22;1938;50.812;7.738;2023-02-11T04:06:00;1.90;99.90
3846;DHT22;1938;50.812;7.738;2023-02-11T04:08:26;1.80;99.90
3846;DHT22;1938;50.812;7.738;2023-02-11T04:10:51;1.80;99.90
3846;DHT22;1938;50.812;7.738;2023-02-11T04:13:18;1.70;99.90
3846;DHT22;1938;50.812;7.738;2023-02-11T04:15:43;1.70;99.90
3846;DHT22;1938;50.812;7.738;2023-02-11T04:18:09;1.90;99.90
3846;DHT22;1938;50.812;7.738;2023-02-11T04:20:35;1.90;99.90
3846;DHT22;1938;50.812;7.738;2023-02-11T04:23:01;1.80;99.90
3846;DHT22;1938;50.812;7.738;2023-02-11T04:25:27;1.80;99.90
3846;DHT22;1938;50.812;7.738;2023-02-11T04:27:53;1.70;99.90
3846;DHT22;1938;50.812;7.738;2023-02-11T04:30:19;1.70;99.90
3846;DHT22;1938;50.812;7.738;2023-02-11T04:32:44;1.60;99.90
3846;DHT22;1938;50.812;7.738;2023-02-11T04:35:10;1.60;99.90
3846;DHT22;1938;50.812;7.738;2023-02-11T04:37:35;1.60;99.90
3846;DHT22;1938;50.812;7.738;2023-02-11T04:40:01;1.60;99.90
3846;DHT22;1938;50.812;7.738;2023-02-11T04:42:28;1.60;99.90
3846;DHT22;1938;50.812;7.738;2023-02-11T04:44:53;1.70;99.90
3846;DHT22;1938;50.812;7.738;2023-02-11T04:47:19;1.70;99.90
3846;DHT22;1938;50.812;7.738;2023-02-11T04:49:44;1.70;99.90
3846;DHT22;1938;50.812;7.738;2023-02-11T04:52:10;1.70;99.90
3846;DHT22;1938;50.812;7.738;2023-02-11T04:54:36;1.70;99.90
3846;DHT22;1938;50.812;7.738;2023-02-11T04:57:02;1.80;99.90
3846;DHT22;1938;50.812;7.738;2023-02-11T04:59:28;1.90;99.90
3846;DHT22;1938;50.812;7.738;2023-02-11T05:01:54;1.80;99.90
3846;DHT22;1938;50.812;7.738;2023-02-11T05:04:21;1.80;99.90
3846;DHT22;1938;50.812;7.738;2023-02-11T05:06:46;1.90;99.90
3846;DHT22;1938;50.812;7.738;2023-02-11T05:09:12;1.90;99.90
3846;DHT22;1938;50.812;7.738;2023-02-11T05:11:38;1.90;99.90
3846;DHT22;1938;50.812;7.738;2023-02-11T05:14:05;1.90;99.90
3846;DHT22;1938;50.812;7.738;2023-02-11T05:16:31;2.00;99.90
3846;DHT22;1938;50.812;7.738;2023-02-11T05:18:56;2.00;99.90
3846;DHT22;1938;50.812;7.738;2023-02-11T05:21:22;2.10;99.90
3846;DHT22;1938;50.812;7.738;2023-02-11T05:23:48;2.10;99.90
3846;DHT22;1938;50.812;7.738;2023-02-11T05:26:14;2.20;99.90
3846;DHT22;1938;50.812;7.738;2023-02-11T05:28:41;2.10;99.90
3846;DHT22;1938;50.812;7.738;2023-02-11T05:31:07;1.90;99.90
3846;DHT22;1938;50.812;7.738;2023-02-11T05:33:32;1.90;99.90
3846;DHT22;1938;50.812;7.738;2023-02-11T05:36:05;2.00;99.90
3846;DHT22;1938;50.812;7.738;2023-02-11T05:38:31;2.00;99.90
3846;DHT22;1938;50.812;7.738;2023-02-11T05:40:57;2.10;99.90
3846;DHT22;1938;50.812;7.738;2023-02-11T05:43:23;2.00;99.90
3846;DHT22;1938;50.812;7.738;2023-02-11T05:45:48;2.10;99.90
3846;DHT22;1938;50.812;7.738;2023-02-11T05:48:14;2.20;99.90
3846;DHT22;1938;50.812;7.738;2023-02-11T05:50:41;2.20;99.90
3846;DHT22;1938;50.812;7.738;2023-02-11T05:53:06;2.10;99.90
3846;DHT22;1938;50.812;7.738;2023-02-11T05:55:32;2.00;99.90
3846;DHT22;1938;50.812;7.738;2023-02-11T05:57:58;1.90;99.90
3846;DHT22;1938;50.812;7.738;2023-02-11T06:00:24;1.90;99.90
3846;DHT22;1938;50.812;7.738;2023-02-11T06:02:49;1.80;99.90
3846;DHT22;1938;50.812;7.738;2023-02-11T06:05:15;1.80;99.90
3846;DHT22;1938;50.812;7.738;2023-02-11T06:07:40;1.80;99.90
3846;DHT22;1938;50.812;7.738;2023-02-11T06:10:07;1.80;99.90
3846;DHT22;1938;50.812;7.738;2023-02-11T06:12:33;1.90;99.90
3846;DHT22;1938;50.812;7.738;2023-02-11T06:15:00;2.00;99.90
3846;DHT22;1938;50.812;7.738;2023-02-11T06:17:25;1.90;99.90
3846;DHT22;1938;50.812;7.738;2023-02-11T06:19:53;1.90;99.90
3846;DHT22;1938;50.812;7.738;2023-02-11T06:22:18;1.80;99.90
3846;DHT22;1938;50.812;7.738;2023-02-11T06:24:44;1.80;99.90
3846;DHT22;1938;50.812;7.738;2023-02-11T06:27:09;1.80;99.90
3846;DHT22;1938;50.812;7.738;2023-02-11T06:29:35;1.80;99.90
3846;DHT22;1938;50.812;7.738;2023-02-11T06:32:01;1.80;99.90
3846;DHT22;1938;50.812;7.738;2023-02-11T06:34:27;1.80;99.90
3846;DHT22;1938;50.812;7.738;2023-02-11T06:36:52;1.90;99.90
3846;DHT22;1938;50.812;7.738;2023-02-11T06:39:19;2.00;99.90
3846;DHT22;1938;50.812;7.738;2023-02-11T06:41:44;1.90;99.90
3846;DHT22;1938;50.812;7.738;2023-02-11T06:44:10;1.70;99.90
3846;DHT22;1938;50.812;7.738;2023-02-11T06:46:36;1.70;99.90
3846;DHT22;1938;50.812;7.738;2023-02-11T06:49:02;1.70;99.90
3846;DHT22;1938;50.812;7.738;2023-02-11T06:51:27;1.70;99.90
3846;DHT22;1938;50.812;7.738;2023-02-11T06:53:54;1.80;99.90
3846;DHT22;1938;50.812;7.738;2023-02-11T06:56:22;1.90;99.90
3846;DHT22;1938;50.812;7.738;2023-02-11T06:58:51;2.00;99.90
3846;DHT22;1938;50.812;7.738;2023-02-11T07:01:18;2.20;99.90
3846;DHT22;1938;50.812;7.738;2023-02-11T07:03:44;2.30;99.90
3846;DHT22;1938;50.812;7.738;2023-02-11T07:06:14;2.40;99.90
3846;DHT22;1938;50.812;7.738;2023-02-11T07:08:40;2.50;99.90
3846;DHT22;1938;50.812;7.738;2023-02-11T07:11:23;2.70;99.90
3846;DHT22;1938;50.812;7.738;2023-02-11T07:13:49;2.80;99.90
3846;DHT22;1938;50.812;7.738;2023-02-11T07:16:17;2.90;99.90
3846;DHT22;1938;50.812;7.738;2023-02-11T07:18:45;3.00;99.90
3846;DHT22;1938;50.812;7.738;2023-02-11T07:21:12;3.00;99.90
3846;DHT22;1938;50.812;7.738;2023-02-11T07:23:38;3.10;99.90
3846;DHT22;1938;50.812;7.738;2023-02-11T07:26:07;3.20;99.90
3846;DHT22;1938;50.812;7.738;2023-02-11T07:28:34;3.20;99.90
3846;DHT22;1938;50.812;7.738;2023-02-11T07:31:08;3.30;99.90
3846;DHT22;1938;50.812;7.738;2023-02-11T07:33:35;3.40;99.90
3846;DHT22;1938;50.812;7.738;2023-02-11T07:36:03;3.40;99.90
3846;DHT22;1938;50.812;7.738;2023-02-11T07:38:31;3.50;99.90
3846;DHT22;1938;50.812;7.738;2023-02-11T07:41:00;3.50;99.90
3846;DHT22;1938;50.812;7.738;2023-02-11T07:43:26;3.50;99.90
3846;DHT22;1938;50.812;7.738;2023-02-11T07:45:52;3.50;99.90
3846;DHT22;1938;50.812;7.738;2023-02-11T07:48:18;3.50;99.90
3846;DHT22;1938;50.812;7.738;2023-02-11T07:50:44;3.50;99.90
3846;DHT22;1938;50.812;7.738;2023-02-11T07:53:10;3.60;99.90
3846;DHT22;1938;50.812;7.738;2023-02-11T07:55:36;3.60;99.90
3846;DHT22;1938;50.812;7.738;2023-02-11T07:58:02;3.60;99.90
3846;DHT22;1938;50.812;7.738;2023-02-11T08:00:27;3.60;99.90
3846;DHT22;1938;50.812;7.738;2023-02-11T08:02:53;3.70;99.90
3846;DHT22;1938;50.812;7.738;2023-02-11T08:05:18;3.70;99.90
3846;DHT22;1938;50.812;7.738;2023-02-11T08:07:45;3.80;99.90
3846;DHT22;1938;50.812;7.738;2023-02-11T08:10:10;3.10;99.90
3846;DHT22;1938;50.812;7.738;2023-02-11T08:12:36;2.60;99.90
3846;DHT22;1938;50.812;7.738;2023-02-11T08:15:02;2.30;99.90
3846;DHT22;1938;50.812;7.738;2023-02-11T08:17:28;2.20;99.90
3846;DHT22;1938;50.812;7.738;2023-02-11T08:19:54;2.10;99.90
3846;DHT22;1938;50.812;7.738;2023-02-11T08:22:19;2.10;99.90
3846;DHT22;1938;50.812;7.738;2023-02-11T08:24:45;2.00;99.90
3846;DHT22;1938;50.812;7.738;2023-02-11T08:27:10;2.00;99.90
3846;DHT22;1938;50.812;7.738;2023-02-11T08:29:36;2.00;99.90
3846;DHT22;1938;50.812;7.738;2023-02-11T08:32:01;2.10;99.90
3846;DHT22;1938;50.812;7.738;2023-02-11T08:34:27;2.30;99.90
3846;DHT22;1938;50.812;7.738;2023-02-11T08:36:52;2.20;99.90
3846;DHT22;1938;50.812;7.738;2023-02-11T08:39:20;2.00;99.90
3846;DHT22;1938;50.812;7.738;2023-02-11T08:41:49;2.10;99.90
3846;DHT22;1938;50.812;7.738;2023-02-11T08:44:16;2.10;99.90
3846;DHT22;1938;50.812;7.738;2023-02-11T08:46:42;2.30;99.90
3846;DHT22;1938;50.812;7.738;2023-02-11T08:49:08;2.20;99.90
3846;DHT22;1938;50.812;7.738;2023-02-11T08:51:33;2.30;99.90
3846;DHT22;1938;50.812;7.738;2023-02-11T08:53:59;2.30;99.90
3846;DHT22;1938;50.812;7.738;2023-02-11T08:56:25;2.40;99.90
3846;DHT22;1938;50.812;7.738;2023-02-11T08:58:52;2.50;99.90
3846;DHT22;1938;50.812;7.738;2023-02-11T09:01:20;2.30;99.90
3846;DHT22;1938;50.812;7.738;2023-02-11T09:03:47;2.20;99.90
3846;DHT22;1938;50.812;7.738;2023-02-11T09:06:13;2.20;99.90
3846;DHT22;1938;50.812;7.738;2023-02-11T09:08:41;2.10;99.90
3846;DHT22;1938;50.812;7.738;2023-02-11T09:11:07;2.10;99.90
3846;DHT22;1938;50.812;7.738;2023-02-11T09:13:34;2.20;99.90
3846;DHT22;1938;50.812;7.738;2023-02-11T09:16:01;2.20;99.90
3846;DHT22;1938;50.812;7.738;2023-02-11T09:18:27;2.20;99.90
3846;DHT22;1938;50.812;7.738;2023-02-11T09:21:00;2.30;99.90
3846;DHT22;1938;50.812;7.738;2023-02-11T09:23:26;2.40;99.90
3846;DHT22;1938;50.812;7.738;2023-02-11T09:25:51;2.20;99.90
3846;DHT22;1938;50.812;7.738;2023-02-11T09:28:17;2.20;99.90
3846;DHT22;1938;50.812;7.738;2023-02-11T09:30:42;2.20;99.90
3846;DHT22;1938;50.812;7.738;2023-02-11T09:33:08;2.20;99.90
3846;DHT22;1938;50.812;7.738;2023-02-11T09:35:33;2.10;99.90
3846;DHT22;1938;50.812;7.738;2023-02-11T09:38:00;2.10;99.90
3846;DHT22;1938;50.812;7.738;2023-02-11T09:40:25;2.20;99.90
3846;DHT22;1938;50.812;7.738;2023-02-11T09:43:09;2.20;99.90
3846;DHT22;1938;50.812;7.738;2023-02-11T09:45:37;2.20;99.90
3846;DHT22;1938;50.812;7.738;2023-02-11T09:50:38;2.20;99.90
3846;DHT22;1938;50.812;7.738;2023-02-11T09:53:26;2.20;99.90
3846;DHT22;1938;50.812;7.738;2023-02-11T09:56:00;2.20;99.90
3846;DHT22;1938;50.812;7.738;2023-02-11T09:58:35;2.30;99.90
3846;DHT22;1938;50.812;7.738;2023-02-11T10:20:32;2.30;99.90
3846;DHT22;1938;50.812;7.738;2023-02-11T10:23:14;2.40;99.90
3846;DHT22;1938;50.812;7.738;2023-02-11T10:25:43;2.40;99.90
3846;DHT22;1938;50.812;7.738;2023-02-11T10:28:15;2.50;99.90
3846;DHT22;1938;50.812;7.738;2023-02-11T10:30:51;2.60;99.90
3846;DHT22;1938;50.812;7.738;2023-02-11T10:33:53;2.70;99.90
3846;DHT22;1938;50.812;7.738;2023-02-11T10:36:22;2.80;99.90
3846;DHT22;1938;50.812;7.738;2023-02-11T10:38:49;3.00;99.90
3846;DHT22;1938;50.812;7.738;2023-02-11T10:41:21;3.10;99.90
3846;DHT22;1938;50.812;7.738;2023-02-11T10:43:50;3.20;99.90
3846;DHT22;1938;50.812;7.738;2023-02-11T10:46:22;3.30;99.90
3846;DHT22;1938;50.812;7.738;2023-02-11T10:48:52;3.40;99.90
3846;DHT22;1938;50.812;7.738;2023-02-11T10:51:20;3.50;99.90
3846;DHT22;1938;50.812;7.738;2023-02-11T10:53:48;3.50;99.90
3846;DHT22;1938;50.812;7.738;2023-02-11T10:56:26;3.60;99.90
3846;DHT22;1938;50.812;7.738;2023-02-11T10:59:04;3.60;99.90
3846;DHT22;1938;50.812;7.738;2023-02-11T11:01:45;3.70;99.90
3846;DHT22;1938;50.812;7.738;2023-02-11T11:06:57;3.70;99.90
3846;DHT22;1938;50.812;7.738;2023-02-11T11:09:55;3.80;99.90
3846;DHT22;1938;50.812;7.738;2023-02-11T11:12:29;3.80;99.90
3846;DHT22;1938;50.812;7.738;2023-02-11T11:17:38;3.80;99.90
3846;DHT22;1938;50.812;7.738;2023-02-11T11:20:28;3.80;99.90
3846;DHT22;1938;50.812;7.738;2023-02-11T11:23:16;3.90;99.90
3846;DHT22;1938;50.812;7.738;2023-02-11T11:25:45;3.80;99.90
3846;DHT22;1938;50.812;7.738;2023-02-11T11:28:24;3.90;99.90
3846;DHT22;1938;50.812;7.738;2023-02-11T11:30:51;3.90;99.90
3846;DHT22;1938;50.812;7.738;2023-02-11T11:33:25;3.90;99.90
3846;DHT22;1938;50.812;7.738;2023-02-11T11:36:09;3.90;99.90
3846;DHT22;1938;50.812;7.738;2023-02-11T11:38:50;4.00;99.90
3846;DHT22;1938;50.812;7.738;2023-02-11T11:46:45;3.00;99.90
3846;DHT22;1938;50.812;7.738;2023-02-11T11:52:17;2.90;99.90
3846;DHT22;1938;50.812;7.738;2023-02-11T11:54:50;3.00;99.90
3846;DHT22;1938;50.812;7.738;2023-02-11T11:57:21;2.90;99.90
3846;DHT22;1938;50.812;7.738;2023-02-11T11:59:51;2.90;99.90
3846;DHT22;1938;50.812;7.738;2023-02-11T12:02:41;3.00;99.90
3846;DHT22;1938;50.812;7.738;2023-02-11T12:05:25;3.00;99.90
3846;DHT22;1938;50.812;7.738;2023-02-11T12:08:14;3.00;99.90
3846;DHT22;1938;50.812;7.738;2023-02-11T12:11:01;3.10;99.90
3846;DHT22;1938;50.812;7.738;2023-02-11T12:13:55;3.00;99.90
3846;DHT22;1938;50.812;7.738;2023-02-11T12:16:49;3.10;99.90
3846;DHT22;1938;50.812;7.738;2023-02-11T12:19:21;3.10;99.90
3846;DHT22;1938;50.812;7.738;2023-02-11T12:22:11;3.10;99.90
3846;DHT22;1938;50.812;7.738;2023-02-11T12:35:55;3.20;99.90
3846;DHT22;1938;50.812;7.738;2023-02-11T12:38:52;3.20;99.90
3846;DHT22;1938;50.812;7.738;2023-02-11T12:53:05;3.20;99.90
3846;DHT22;1938;50.812;7.738;2023-02-11T12:55:37;3.20;99.90
3846;DHT22;1938;50.812;7.738;2023-02-11T12:58:04;3.30;99.90
3846;DHT22;1938;50.812;7.738;2023-02-11T13:01:02;3.30;99.90
3846;DHT22;1938;50.812;7.738;2023-02-11T13:03:39;3.40;99.90
3846;DHT22;1938;50.812;7.738;2023-02-11T13:06:11;3.30;99.90
3846;DHT22;1938;50.812;7.738;2023-02-11T13:08:51;3.30;99.90
3846;DHT22;1938;50.812;7.738;2023-02-11T13:11:25;3.40;99.90
3846;DHT22;1938;50.812;7.738;2023-02-11T13:16:42;3.40;99.90
3846;DHT22;1938;50.812;7.738;2023-02-11T13:22:10;3.50;99.90
3846;DHT22;1938;50.812;7.738;2023-02-11T13:37:51;3.60;99.90
3846;DHT22;1938;50.812;7.738;2023-02-11T13:40:23;3.60;99.90
3846;DHT22;1938;50.812;7.738;2023-02-11T13:42:52;3.60;99.90
3846;DHT22;1938;50.812;7.738;2023-02-11T13:45:35;3.60;99.90
3846;DHT22;1938;50.812;7.738;2023-02-11T13:48:05;3.60;99.90
3846;DHT22;1938;50.812;7.738;2023-02-11T13:50:36;3.60;99.90
3846;DHT22;1938;50.812;7.738;2023-02-11T13:53:04;3.60;99.90
3846;DHT22;1938;50.812;7.738;2023-02-11T13:55:31;3.60;99.90
3846;DHT22;1938;50.812;7.738;2023-02-11T14:14:25;3.80;99.90
3846;DHT22;1938;50.812;7.738;2023-02-11T14:27:10;4.20;99.90
3846;DHT22;1938;50.812;7.738;2023-02-11T14:40:54;4.10;99.90
3846;DHT22;1938;50.812;7.738;2023-02-11T14:44:05;4.10;99.90
3846;DHT22;1938;50.812;7.738;2023-02-11T14:46:31;4.00;99.90
3846;DHT22;1938;50.812;7.738;2023-02-11T14:49:00;4.10;99.90
3846;DHT22;1938;50.812;7.738;2023-02-11T14:51:37;4.00;99.90
3846;DHT22;1938;50.812;7.738;2023-02-11T14:54:20;4.00;99.90
3846;DHT22;1938;50.812;7.738;2023-02-11T14:57:05;4.10;99.90
3846;DHT22;1938;50.812;7.738;2023-02-11T14:59:31;4.20;99.90
3846;DHT22;1938;50.812;7.738;2023-02-11T15:01:56;4.10;99.90
3846;DHT22;1938;50.812;7.738;2023-02-11T15:04:28;4.10;99.90
3846;DHT22;1938;50.812;7.738;2023-02-11T15:06:55;4.10;99.90
3846;DHT22;1938;50.812;7.738;2023-02-11T15:09:45;4.20;99.90
3846;DHT22;1938;50.812;7.738;2023-02-11T15:12:23;4.10;99.90
3846;DHT22;1938;50.812;7.738;2023-02-11T15:14:52;4.30;99.90
3846;DHT22;1938;50.812;7.738;2023-02-11T15:17:23;4.20;99.90
3846;DHT22;1938;50.812;7.738;2023-02-11T15:19:53;4.20;99.90
3846;DHT22;1938;50.812;7.738;2023-02-11T15:22:23;4.20;99.90
3846;DHT22;1938;50.812;7.738;2023-02-11T15:27:46;4.20;99.90
3846;DHT22;1938;50.812;7.738;2023-02-11T15:32:52;4.20;99.90
3846;DHT22;1938;50.812;7.738;2023-02-11T15:35:30;4.20;99.90
3846;DHT22;1938;50.812;7.738;2023-02-11T15:37:57;4.20;99.90
3846;DHT22;1938;50.812;7.738;2023-02-11T15:40:29;4.30;99.90
3846;DHT22;1938;50.812;7.738;2023-02-11T15:43:05;4.30;99.90
3846;DHT22;1938;50.812;7.738;2023-02-11T15:48:15;4.30;99.90
3846;DHT22;1938;50.812;7.738;2023-02-11T15:50:47;4.30;99.90
3846;DHT22;1938;50.812;7.738;2023-02-11T15:55:58;4.30;99.90
3846;DHT22;1938;50.812;7.738;2023-02-11T15:58:25;4.30;99.90
3846;DHT22;1938;50.812;7.738;2023-02-11T16:00:52;4.30;99.90
3846;DHT22;1938;50.812;7.738;2023-02-11T16:03:26;4.30;99.90
3846;DHT22;1938;50.812;7.738;2023-02-11T16:06:15;4.30;99.90
3846;DHT22;1938;50.812;7.738;2023-02-11T16:08:41;4.40;99.90
3846;DHT22;1938;50.812;7.738;2023-02-11T16:11:24;4.30;99.90
3846;DHT22;1938;50.812;7.738;2023-02-11T16:13:50;4.40;99.90
3846;DHT22;1938;50.812;7.738;2023-02-11T16:16:25;4.40;99.90
3846;DHT22;1938;50.812;7.738;2023-02-11T16:18:53;4.60;99.90
3846;DHT22;1938;50.812;7.738;2023-02-11T16:21:36;4.50;99.90
3846;DHT22;1938;50.812;7.738;2023-02-11T16:24:21;4.60;99.90
3846;DHT22;1938;50.812;7.738;2023-02-11T16:26:52;4.60;99.90
3846;DHT22;1938;50.812;7.738;2023-02-11T16:29:32;4.80;99.90
3846;DHT22;1938;50.812;7.738;2023-02-11T16:32:18;5.00;99.90
3846;DHT22;1938;50.812;7.738;2023-02-11T16:34:45;5.20;99.90
3846;DHT22;1938;50.812;7.738;2023-02-11T16:37:11;5.40;99.90
3846;DHT22;1938;50.812;7.738;2023-02-11T16:39:37;5.50;99.90
3846;DHT22;1938;50.812;7.738;2023-02-11T16:42:03;5.60;99.90
3846;DHT22;1938;50.812;7.738;2023-02-11T16:44:32;5.60;99.90
3846;DHT22;1938;50.812;7.738;2023-02-11T16:46:59;5.60;99.90
3846;DHT22;1938;50.812;7.738;2023-02-11T16:49:30;5.70;99.90
3846;DHT22;1938;50.812;7.738;2023-02-11T16:51:58;5.70;99.90
3846;DHT22;1938;50.812;7.738;2023-02-11T16:54:28;5.70;99.90
3846;DHT22;1938;50.812;7.738;2023-02-11T16:56:55;5.80;99.90
3846;DHT22;1938;50.812;7.738;2023-02-11T16:59:21;5.80;99.90
3846;DHT22;1938;50.812;7.738;2023-02-11T17:01:47;5.80;99.90
3846;DHT22;1938;50.812;7.738;2023-02-11T17:04:23;5.80;99.90
3846;DHT22;1938;50.812;7.738;2023-02-11T17:06:50;5.80;99.90
3846;DHT22;1938;50.812;7.738;2023-02-11T17:09:22;5.80;99.90
3846;DHT22;1938;50.812;7.738;2023-02-11T17:11:48;5.80;99.90
3846;DHT22;1938;50.812;7.738;2023-02-11T17:14:14;5.80;99.90
3846;DHT22;1938;50.812;7.738;2023-02-11T17:16:40;5.80;99.90
3846;DHT22;1938;50.812;7.738;2023-02-11T17:19:05;5.90;99.90
3846;DHT22;1938;50.812;7.738;2023-02-11T17:21:31;5.80;99.90
3846;DHT22;1938;50.812;7.738;2023-02-11T17:23:57;5.80;99.90
3846;DHT22;1938;50.812;7.738;2023-02-11T17:26:23;5.80;99.90
3846;DHT22;1938;50.812;7.738;2023-02-11T17:28:48;5.80;99.90
3846;DHT22;1938;50.812;7.738;2023-02-11T17:31:15;5.80;99.90
3846;DHT22;1938;50.812;7.738;2023-02-11T17:33:42;5.70;99.90
3846;DHT22;1938;50.812;7.738;2023-02-11T17:36:08;5.80;99.90
3846;DHT22;1938;50.812;7.738;2023-02-11T17:38:35;5.80;99.90
3846;DHT22;1938;50.812;7.738;2023-02-11T17:41:02;5.80;99.90
3846;DHT22;1938;50.812;7.738;2023-02-11T17:43:29;5.70;99.90
3846;DHT22;1938;50.812;7.738;2023-02-11T17:45:56;5.80;99.90
3846;DHT22;1938;50.812;7.738;2023-02-11T17:48:23;5.80;99.90
3846;DHT22;1938;50.812;7.738;2023-02-11T17:50:48;5.70;99.90
3846;DHT22;1938;50.812;7.738;2023-02-11T17:53:14;5.80;99.90
3846;DHT22;1938;50.812;7.738;2023-02-11T17:55:40;5.10;99.90
3846;DHT22;1938;50.812;7.738;2023-02-11T17:58:05;4.80;99.90
3846;DHT22;1938;50.812;7.738;2023-02-11T18:00:31;4.60;99.90
3846;DHT22;1938;50.812;7.738;2023-02-11T18:02:58;4.60;99.90
3846;DHT22;1938;50.812;7.738;2023-02-11T18:05:27;4.60;99.90
3846;DHT22;1938;50.812;7.738;2023-02-11T18:07:54;4.60;99.90
3846;DHT22;1938;50.812;7.738;2023-02-11T18:10:20;4.50;99.90
3846;DHT22;1938;50.812;7.738;2023-02-11T18:12:45;4.60;99.90
3846;DHT22;1938;50.812;7.738;2023-02-11T18:15:11;4.50;99.90
3846;DHT22;1938;50.812;7.738;2023-02-11T18:17:38;4.60;99.90
3846;DHT22;1938;50.812;7.738;2023-02-11T18:20:04;4.60;99.90
3846;DHT22;1938;50.812;7.738;2023-02-11T18:22:29;4.60;99.90
3846;DHT22;1938;50.812;7.738;2023-02-11T18:25:00;4.50;99.90
3846;DHT22;1938;50.812;7.738;2023-02-11T18:27:26;4.60;99.90
3846;DHT22;1938;50.812;7.738;2023-02-11T18:29:52;4.60;99.90
3846;DHT22;1938;50.812;7.738;2023-02-11T18:32:18;4.60;99.90
3846;DHT22;1938;50.812;7.738;2023-02-11T18:34:45;4.60;99.90
3846;DHT22;1938;50.812;7.738;2023-02-11T18:37:10;4.50;99.90
3846;DHT22;1938;50.812;7.738;2023-02-11T18:39:37;4.60;99.90
3846;DHT22;1938;50.812;7.738;2023-02-11T18:42:03;4.60;99.90
3846;DHT22;1938;50.812;7.738;2023-02-11T18:44:28;4.60;99.90
3846;DHT22;1938;50.812;7.738;2023-02-11T18:46:55;4.60;99.90
3846;DHT22;1938;50.812;7.738;2023-02-11T18:49:20;4.60;99.90
3846;DHT22;1938;50.812;7.738;2023-02-11T18:51:46;4.70;99.90
3846;DHT22;1938;50.812;7.738;2023-02-11T18:54:12;4.60;99.90
3846;DHT22;1938;50.812;7.738;2023-02-11T18:56:38;4.60;99.90
3846;DHT22;1938;50.812;7.738;2023-02-11T18:59:04;4.60;99.90
3846;DHT22;1938;50.812;7.738;2023-02-11T19:01:32;4.70;99.90
3846;DHT22;1938;50.812;7.738;2023-02-11T19:04:02;4.60;99.90
3846;DHT22;1938;50.812;7.738;2023-02-11T19:06:31;4.60;99.90